Time;durP1;ratioP1;P1;durP2;ratioP2;P2;SDS_P1;SDS_P2;PMS_P1;PMS_P2;Temp;Humidity;BMP_temperature;BMP_pressure;BME280_temperature;BME280_humidity;BME280_pressure;Samples;Min_cycle;Max_cycle;Signal;HPM_P1;HPM_P2
2023/03/01 16:44:43;;;;;;;23.90;14.30;;;;;;;2.81;72.26;101384.08;103878;1295;602389;-62
2023/03/01 16:47:21;;;;;;;24.20;15.40;;;;;;;2.77;72.21;101381.02;106691;1266;79965;-60
2023/03/01 16:50:03;;;;;;;24.50;14.40;;;;;;;2.78;72.33;101380.56;106740;1270;83110;-62
2023/03/01 16:52:39;;;;;;;21.10;14.10;;;;;;;2.80;72.45;101372.96;106678;1267;96944;-63
2023/03/01 16:55:14;;;;;;;24.50;13.60;;;;;;;2.81;72.54;101372.70;106897;1264;87884;-63
2023/03/01 16:57:52;;;;;;;21.10;12.30;;;;;;;2.78;72.61;101377.33;106446;1263;637608;-63
2023/03/01 17:00:29;;;;;;;20.60;12.80;;;;;;;2.69;72.79;101378.95;107073;1262;76774;-57
2023/03/01 17:03:06;;;;;;;18.50;12.50;;;;;;;2.58;72.79;101380.66;107063;1263;83081;-57
2023/03/01 17:05:47;;;;;;;19.90;12.90;;;;;;;2.46;72.84;101377.86;107055;1261;96481;-60
2023/03/01 17:08:22;;;;;;;19.80;13.40;;;;;;;2.36;72.77;101377.13;107022;1260;88264;-61
2023/03/01 17:11:05;;;;;;;17.90;12.50;;;;;;;2.27;72.85;101378.58;107041;1260;95983;-61
2023/03/01 17:13:44;;;;;;;21.40;13.60;;;;;;;2.15;72.89;101381.58;107034;1263;81156;-60
2023/03/01 17:16:26;;;;;;;21.20;12.30;;;;;;;2.03;72.96;101387.95;107021;1261;83227;-61
2023/03/01 17:19:03;;;;;;;22.20;12.80;;;;;;;1.94;73.12;101388.75;107033;1260;96873;-58
2023/03/01 17:21:48;;;;;;;23.00;13.10;;;;;;;1.84;73.29;101388.95;107025;1263;89355;-62
2023/03/01 17:24:25;;;;;;;23.00;12.50;;;;;;;1.76;73.36;101391.70;107021;1260;94582;-59
2023/03/01 17:27:03;;;;;;;24.00;13.00;;;;;;;1.68;73.54;101391.35;107016;1260;79883;-56
2023/03/01 17:29:42;;;;;;;20.70;11.60;;;;;;;1.58;73.53;101391.73;107069;1261;82067;-59
2023/03/01 17:32:23;;;;;;;27.50;12.30;;;;;;;1.50;73.67;101395.83;107087;1263;97629;-60
2023/03/01 17:35:01;;;;;;;20.80;12.70;;;;;;;1.41;73.74;101399.88;107027;1260;87422;-59
2023/03/01 17:37:38;;;;;;;24.90;14.50;;;;;;;1.32;73.79;101407.21;107028;1261;94038;-58
2023/03/01 17:40:15;;;;;;;27.00;13.90;;;;;;;1.26;73.99;101405.36;106995;1259;81336;-60
2023/03/01 17:42:50;;;;;;;21.60;13.10;;;;;;;1.17;74.08;101402.59;107049;1260;81987;-59
2023/03/01 17:45:26;;;;;;;24.00;14.00;;;;;;;1.09;74.23;101401.39;107026;1263;97138;-58
2023/03/01 17:48:07;;;;;;;21.60;13.30;;;;;;;1.03;74.39;101400.34;107016;1261;86212;-61
2023/03/01 17:50:43;;;;;;;23.60;13.70;;;;;;;0.96;74.47;101402.47;107014;1260;93553;-59
2023/03/01 17:53:23;;;;;;;22.50;13.80;;;;;;;0.91;74.70;101401.38;107046;1261;78999;-61
2023/03/01 17:56:04;;;;;;;22.80;13.60;;;;;;;0.85;74.86;101396.27;107023;1260;81335;-60
2023/03/01 17:58:40;;;;;;;22.00;13.10;;;;;;;0.80;74.89;101392.70;107035;1261;98116;-60
2023/03/01 18:01:20;;;;;;;22.60;13.40;;;;;;;0.71;74.96;101393.52;106987;1261;86643;-64
2023/03/01 18:04:04;;;;;;;22.80;14.90;;;;;;;0.63;75.18;101396.36;107001;1264;95909;-64
2023/03/01 18:06:41;;;;;;;23.80;13.80;;;;;;;0.52;75.15;101391.25;106993;1260;80112;-58
2023/03/01 18:09:32;;;;;;;27.00;13.80;;;;;;;0.44;75.36;101387.64;107009;1260;81274;-60
2023/03/01 18:12:09;;;;;;;23.40;14.10;;;;;;;0.40;75.44;101386.20;106974;1264;96785;-63
2023/03/01 18:14:47;;;;;;;27.30;15.10;;;;;;;0.40;75.55;101386.73;107013;1261;88209;-58
2023/03/01 18:17:27;;;;;;;26.40;15.60;;;;;;;0.44;75.74;101383.08;106960;1264;94858;-58
2023/03/01 18:20:06;;;;;;;30.70;14.90;;;;;;;0.47;75.64;101374.70;106999;1260;78718;-58
2023/03/01 18:22:45;;;;;;;34.50;18.00;;;;;;;0.49;75.65;101377.03;106979;1264;83164;-59
2023/03/01 18:25:27;;;;;;;29.30;18.20;;;;;;;0.49;76.01;101378.30;106989;1261;97050;-60
2023/03/01 18:28:09;;;;;;;35.00;19.00;;;;;;;0.46;76.11;101375.30;106988;1263;87460;-58
2023/03/01 18:30:55;;;;;;;32.80;19.10;;;;;;;0.45;76.14;101373.27;106942;1261;94704;-62
2023/03/01 18:33:32;;;;;;;40.20;21.40;;;;;;;0.48;76.33;101372.14;107291;1257;81493;-59
2023/03/01 18:36:16;;;;;;;41.20;22.30;;;;;;;0.50;76.61;101372.89;107318;1256;83546;-60
2023/03/01 18:38:55;;;;;;;41.70;22.30;;;;;;;0.49;76.78;101372.61;107337;1261;98643;-57
2023/03/01 18:41:36;;;;;;;41.30;22.60;;;;;;;0.52;76.95;101374.73;107365;1260;89255;-56
2023/03/01 18:44:15;;;;;;;37.50;23.00;;;;;;;0.53;76.88;101372.36;107353;1258;92968;-63
2023/03/01 18:46:57;;;;;;;46.70;25.00;;;;;;;0.55;76.94;101376.30;107343;1258;80244;-63
2023/03/01 18:49:38;;;;;;;42.40;23.60;;;;;;;0.56;77.11;101372.17;107389;1255;82178;-60
2023/03/01 18:52:17;;;;;;;43.00;24.00;;;;;;;0.54;77.27;101373.16;107369;1257;95911;-60
2023/03/01 18:54:54;;;;;;;46.90;24.80;;;;;;;0.52;77.20;101377.19;107380;1256;88341;-56
2023/03/01 18:57:32;;;;;;;43.70;25.00;;;;;;;0.49;77.22;101376.16;107285;1257;96255;-56
2023/03/01 19:00:14;;;;;;;43.00;26.60;;;;;;;0.45;77.06;101372.58;107342;1257;79128;-57
2023/03/01 19:02:58;;;;;;;44.70;25.50;;;;;;;0.38;77.18;101375.33;107257;1257;82132;-58
2023/03/01 19:05:47;;;;;;;48.40;26.60;;;;;;;0.31;77.26;101379.33;107358;1257;98121;-57
2023/03/01 19:08:27;;;;;;;45.60;27.40;;;;;;;0.25;77.29;101384.31;107295;1257;88732;-57
2023/03/01 19:11:09;;;;;;;44.90;24.90;;;;;;;0.22;77.43;101383.66;107347;1255;94579;-57
2023/03/01 19:13:46;;;;;;;44.60;26.50;;;;;;;0.18;77.51;101383.92;107355;1257;81095;-62
2023/03/01 19:16:34;;;;;;;49.20;26.40;;;;;;;0.16;77.58;101386.85;107352;1257;82943;-62
2023/03/01 19:19:12;;;;;;;48.50;27.50;;;;;;;0.17;77.65;101393.92;107363;1257;95758;-64
2023/03/01 19:21:48;;;;;;;56.00;28.40;;;;;;;0.15;77.75;101397.23;107344;1258;87586;-63
2023/03/01 19:24:30;;;;;;;48.00;26.30;;;;;;;0.10;77.62;101402.55;107334;1257;94741;-61
2023/03/01 19:27:09;;;;;;;50.60;27.90;;;;;;;0.05;77.72;101410.80;107340;1257;79140;-61
2023/03/01 19:29:45;;;;;;;46.80;27.10;;;;;;;-0.01;77.87;101413.64;107292;1257;82043;-57
2023/03/01 19:32:21;;;;;;;51.90;26.60;;;;;;;-0.08;77.82;101412.70;107292;1257;97303;-57
2023/03/01 19:35:00;;;;;;;51.20;26.30;;;;;;;-0.19;77.86;101410.75;107359;1256;88138;-61
2023/03/01 19:37:40;;;;;;;49.40;26.20;;;;;;;-0.24;77.90;101407.66;107346;1257;95281;-59
2023/03/01 19:40:16;;;;;;;47.20;25.70;;;;;;;-0.27;77.98;101405.20;107377;1260;79325;-61
2023/03/01 19:42:58;;;;;;;46.60;26.00;;;;;;;-0.30;77.84;101405.23;107323;1259;82982;-62
2023/03/01 19:45:36;;;;;;;52.60;27.90;;;;;;;-0.34;78.12;101409.42;107341;1256;96337;-62
2023/03/01 19:48:14;;;;;;;52.60;28.30;;;;;;;-0.39;78.24;101408.84;107314;1260;89341;-62
2023/03/01 19:50:54;;;;;;;52.00;27.10;;;;;;;-0.45;78.48;101408.33;107333;1260;93949;-59
2023/03/01 19:53:34;;;;;;;54.30;27.70;;;;;;;-0.52;78.49;101409.79;107370;1256;81171;-61
2023/03/01 19:56:11;;;;;;;50.90;28.20;;;;;;;-0.56;78.43;101412.91;107297;1256;81629;-58
2023/03/01 19:58:49;;;;;;;44.70;28.40;;;;;;;-0.57;78.63;101412.79;107316;1259;95947;-59
2023/03/01 20:01:28;;;;;;;48.20;26.30;;;;;;;-0.62;78.52;101412.51;107331;1256;88783;-59
2023/03/01 20:04:08;;;;;;;49.10;27.50;;;;;;;-0.67;78.59;101411.24;107318;1256;93827;-58
2023/03/01 20:06:50;;;;;;;44.60;26.90;;;;;;;-0.68;78.79;101418.38;107344;1256;77102;-58
2023/03/01 20:09:31;;;;;;;51.70;29.30;;;;;;;-0.68;78.87;101418.59;107214;1256;82543;-62
2023/03/01 20:12:08;;;;;;;51.20;28.90;;;;;;;-0.72;78.94;101425.73;107368;1256;98206;-63
2023/03/01 20:14:54;;;;;;;53.10;28.70;;;;;;;-0.73;79.19;101424.02;107168;1256;89073;-57
2023/03/01 20:17:34;;;;;;;52.50;30.70;;;;;;;-0.74;79.07;101425.29;107367;1258;94449;-59
2023/03/01 20:20:12;;;;;;;50.60;28.30;;;;;;;-0.75;79.10;101425.33;107335;1258;81773;-58
2023/03/01 20:22:48;;;;;;;50.70;29.40;;;;;;;-0.77;79.15;101423.53;107352;1256;80893;-58
2023/03/01 20:25:28;;;;;;;54.50;30.60;;;;;;;-0.78;79.39;101426.05;107287;1256;98408;-61
2023/03/01 20:28:05;;;;;;;56.00;30.20;;;;;;;-0.81;79.43;101426.41;107333;1257;88664;-61
2023/03/01 20:30:47;;;;;;;53.00;30.70;;;;;;;-0.80;79.48;101433.13;107424;1257;95134;-57
2023/03/01 20:33:23;;;;;;;55.40;31.50;;;;;;;-0.78;79.59;101431.02;107355;1260;79626;-56
2023/03/01 20:36:07;;;;;;;61.70;34.40;;;;;;;-0.77;79.50;101430.99;107376;1260;83102;-56
2023/03/01 20:38:49;;;;;;;63.30;35.30;;;;;;;-0.77;79.68;101432.20;107329;1259;98489;-64
2023/03/01 20:41:34;;;;;;;65.20;36.80;;;;;;;-0.78;79.57;101427.28;107349;1257;88066;-63
2023/03/01 20:44:12;;;;;;;65.30;36.70;;;;;;;-0.80;79.78;101424.60;107639;1254;94417;-62
2023/03/01 20:46:51;;;;;;;63.00;36.20;;;;;;;-0.83;79.90;101425.16;107641;1253;78552;-62
2023/03/01 20:49:27;;;;;;;66.00;38.20;;;;;;;-0.84;80.01;101428.55;107634;1254;81590;-58
2023/03/01 20:52:08;;;;;;;60.60;35.60;;;;;;;-0.80;79.86;101421.81;107595;1253;98584;-58
2023/03/01 20:54:45;;;;;;;71.60;38.60;;;;;;;-0.79;80.03;101417.49;107675;1253;87647;-59
2023/03/01 20:57:24;;;;;;;64.60;37.00;;;;;;;-0.78;79.97;101419.02;107622;1253;95530;-61
2023/03/01 21:00:17;;;;;;;71.60;37.90;;;;;;;-0.80;79.97;101420.67;107608;1253;79565;-62
2023/03/01 21:02:56;;;;;;;66.90;38.20;;;;;;;-0.83;80.09;101421.45;107600;1254;81205;-62
2023/03/01 21:05:37;;;;;;;75.20;40.00;;;;;;;-0.87;80.09;101420.45;107541;1253;96684;-59
2023/03/01 21:08:14;;;;;;;71.90;39.30;;;;;;;-0.93;80.47;101421.17;107620;1252;88865;-58
2023/03/01 21:10:56;;;;;;;68.80;38.40;;;;;;;-0.95;80.32;101423.94;107588;1253;95047;-61
2023/03/01 21:13:33;;;;;;;66.20;37.00;;;;;;;-0.95;80.42;101425.68;107617;1253;80349;-60
2023/03/01 21:16:18;;;;;;;70.10;38.20;;;;;;;-0.92;80.67;101421.79;107671;1253;81710;-61
2023/03/01 21:19:00;;;;;;;62.50;36.70;;;;;;;-0.90;80.67;101427.00;107638;1253;99010;-60
2023/03/01 21:21:42;;;;;;;67.10;36.80;;;;;;;-0.90;80.38;101422.59;107621;1253;89341;-58
2023/03/01 21:24:30;;;;;;;69.70;37.40;;;;;;;-0.93;80.52;101424.17;107593;1256;95597;-55
2023/03/01 21:27:11;;;;;;;59.20;35.50;;;;;;;-0.94;80.26;101416.10;107609;1253;79788;-57
2023/03/01 21:29:53;;;;;;;61.70;35.60;;;;;;;-0.98;80.47;101412.10;107636;1252;83369;-58
2023/03/01 21:32:39;;;;;;;63.60;36.30;;;;;;;-1.03;80.40;101414.34;107611;1253;97821;-58
2023/03/01 21:35:24;;;;;;;64.70;36.50;;;;;;;-1.08;80.49;101412.02;107637;1252;89386;-56
2023/03/01 21:38:10;;;;;;;59.30;35.10;;;;;;;-1.16;80.46;101408.73;107611;1253;93936;-56
2023/03/01 21:40:51;;;;;;;59.90;35.40;;;;;;;-1.21;80.73;101409.77;107641;1253;79647;-61
2023/03/01 21:43:32;;;;;;;61.60;36.00;;;;;;;-1.26;80.75;101408.28;107598;1254;82779;-60
2023/03/01 21:46:11;;;;;;;58.70;35.40;;;;;;;-1.33;80.95;101405.67;107633;1253;98440;-58
2023/03/01 21:48:54;;;;;;;60.40;35.10;;;;;;;-1.36;80.88;101408.69;107649;1253;88617;-57
2023/03/01 21:51:40;;;;;;;57.70;35.30;;;;;;;-1.40;80.88;101404.85;107610;1254;95390;-56
2023/03/01 21:54:19;;;;;;;61.90;34.20;;;;;;;-1.41;81.14;101402.80;107638;1252;81929;-60
2023/03/01 21:57:00;;;;;;;57.60;33.40;;;;;;;-1.45;80.95;101401.28;107616;1253;81942;-61
2023/03/01 21:59:37;;;;;;;60.40;33.40;;;;;;;-1.49;81.22;101399.74;107645;1253;98437;-57
2023/03/01 22:02:14;;;;;;;58.10;34.40;;;;;;;-1.52;80.98;101399.70;107623;1254;89109;-57
2023/03/01 22:04:56;;;;;;;55.60;34.00;;;;;;;-1.53;81.20;101401.89;107645;1252;94243;-62
2023/03/01 22:07:35;;;;;;;57.80;33.10;;;;;;;-1.52;81.01;101406.98;107590;1252;80484;-62
2023/03/01 22:10:13;;;;;;;58.00;33.20;;;;;;;-1.52;81.31;101401.88;107633;1256;83092;-58
2023/03/01 22:12:48;;;;;;;58.80;33.60;;;;;;;-1.52;81.22;101405.38;107650;1253;98839;-59
2023/03/01 22:15:27;;;;;;;62.00;33.70;;;;;;;-1.53;81.38;101404.02;107596;1253;87990;-58
2023/03/01 22:18:03;;;;;;;57.50;34.40;;;;;;;-1.47;81.80;101400.14;107608;1252;92782;-58
2023/03/01 22:20:46;;;;;;;64.10;37.60;;;;;;;-1.44;81.78;101400.88;107650;1253;79563;-58
2023/03/01 22:23:28;;;;;;;60.50;34.30;;;;;;;-1.40;81.78;101400.77;107621;1253;82504;-58
2023/03/01 22:26:07;;;;;;;59.50;35.90;;;;;;;-1.37;81.84;101402.55;107618;1253;99122;-61
2023/03/01 22:28:49;;;;;;;62.90;36.50;;;;;;;-1.34;81.63;101407.36;107602;1253;88865;-57
2023/03/01 22:31:28;;;;;;;59.70;35.00;;;;;;;-1.39;82.00;101404.47;107598;1253;93668;-56
2023/03/01 22:34:09;;;;;;;59.80;33.80;;;;;;;-1.42;81.88;101400.55;107623;1253;83505;-56
2023/03/01 22:36:49;;;;;;;61.90;34.90;;;;;;;-1.43;81.89;101397.45;107642;1253;81796;-56
2023/03/01 22:39:23;;;;;;;61.30;35.50;;;;;;;-1.45;81.87;101395.24;107639;1252;97108;-58
2023/03/01 22:42:04;;;;;;;59.40;34.00;;;;;;;-1.46;81.95;101395.85;107631;1252;87907;-58
2023/03/01 22:44:41;;;;;;;66.30;36.40;;;;;;;-1.49;81.90;101399.77;107611;1255;94890;-58
2023/03/01 22:47:21;;;;;;;72.50;38.40;;;;;;;-1.53;81.85;101398.04;107634;1253;80238;-58
2023/03/01 22:50:06;;;;;;;73.60;37.40;;;;;;;-1.56;81.82;101399.28;107598;1252;82196;-62
2023/03/01 22:52:48;;;;;;;64.60;37.00;;;;;;;-1.61;81.76;101400.45;107620;1253;99123;-61
2023/03/01 22:55:23;;;;;;;67.00;36.80;;;;;;;-1.67;81.86;101402.17;107670;1252;87069;-61
2023/03/01 22:58:03;;;;;;;66.10;36.80;;;;;;;-1.68;81.84;101404.38;107608;1253;94753;-60
2023/03/01 23:00:39;;;;;;;72.30;39.50;;;;;;;-1.69;81.92;101403.02;107659;1252;77365;-57
2023/03/01 23:03:22;;;;;;;71.40;39.40;;;;;;;-1.70;81.88;101405.40;107619;1252;82050;-57
2023/03/01 23:06:02;;;;;;;78.30;43.50;;;;;;;-1.72;82.17;101406.04;107636;1255;98078;-60
2023/03/01 23:08:38;;;;;;;73.50;42.20;;;;;;;-1.74;82.06;101403.67;107609;1252;88411;-60
2023/03/01 23:11:19;;;;;;;83.40;45.40;;;;;;;-1.77;82.33;101403.49;107607;1255;95588;-61
2023/03/01 23:14:03;;;;;;;80.60;43.70;;;;;;;-1.79;82.28;101405.51;107640;1253;81159;-58
2023/03/01 23:16:41;;;;;;;77.80;42.50;;;;;;;-1.81;82.24;101407.77;107615;1252;80925;-60
2023/03/01 23:19:26;;;;;;;77.80;43.00;;;;;;;-1.85;81.83;101406.73;107669;1253;98794;-62
2023/03/01 23:22:09;;;;;;;73.90;41.10;;;;;;;-1.88;81.87;101410.05;107644;1253;89071;-63
2023/03/01 23:24:53;;;;;;;75.50;41.50;;;;;;;-1.94;82.09;101408.64;107585;1253;95533;-58
2023/03/01 23:27:31;;;;;;;75.50;43.60;;;;;;;-1.99;82.25;101404.33;107621;1253;79157;-56
2023/03/01 23:30:09;;;;;;;78.10;43.60;;;;;;;-1.99;82.03;101401.91;107655;1253;79264;-63
2023/03/01 23:32:52;;;;;;;73.50;41.10;;;;;;;-2.03;82.21;101399.46;107615;1253;98828;-62
2023/03/01 23:35:29;;;;;;;;;;;;;;;-2.09;81.88;101395.04;107658;1253;87984;-56
2023/03/01 23:38:10;;;;;;;82.30;43.40;;;;;;;-2.15;82.03;101392.37;107606;1252;93937;-57
2023/03/01 23:40:48;;;;;;;74.10;43.20;;;;;;;-2.17;82.24;101392.52;107599;1252;80292;-62
2023/03/01 23:43:25;;;;;;;78.00;41.50;;;;;;;-2.19;82.05;101396.14;107642;1252;81812;-64
2023/03/01 23:46:04;;;;;;;75.70;43.60;;;;;;;-2.19;82.23;101393.67;107602;1253;97759;-56
2023/03/01 23:48:47;;;;;;;78.50;42.80;;;;;;;-2.20;82.20;101397.05;107632;1253;88926;-58
2023/03/01 23:51:28;;;;;;;77.30;42.30;;;;;;;-2.21;82.31;101397.11;107605;1255;95491;-57
2023/03/01 23:54:06;;;;;;;75.00;41.90;;;;;;;-2.20;82.37;101399.38;107617;1253;79714;-63
2023/03/01 23:56:44;;;;;;;76.60;42.80;;;;;;;-2.22;82.33;101394.52;107682;1253;83122;-63
2023/03/01 23:59:28;;;;;;;80.50;43.60;;;;;;;-2.26;82.46;101393.71;107616;1253;99229;-63
